createdAt,value
2023-04-18T00:00:21.162Z,74.10
2023-04-18T00:02:51.267Z,74.00
2023-04-18T00:05:20.464Z,74.10
2023-04-18T00:07:48.373Z,74.20
2023-04-18T00:10:16.026Z,74.30
2023-04-18T00:12:43.868Z,74.20
2023-04-18T00:15:12.698Z,74.40
2023-04-18T00:17:40.536Z,74.40
2023-04-18T00:20:10.503Z,74.40
2023-04-18T00:22:42.313Z,74.50
2023-04-18T00:25:10.950Z,74.50
2023-04-18T00:27:39.230Z,75.30
2023-04-18T00:30:07.922Z,74.40
2023-04-18T00:32:38.511Z,74.50
2023-04-18T00:35:07.200Z,74.50
2023-04-18T00:37:35.034Z,74.60
2023-04-18T00:40:05.569Z,74.60
2023-04-18T00:42:33.832Z,74.60
2023-04-18T00:45:01.729Z,74.70
2023-04-18T00:47:29.532Z,74.60
2023-04-18T00:49:57.571Z,74.60
2023-04-18T00:52:26.982Z,74.60
2023-04-18T00:54:55.326Z,74.60
2023-04-18T00:57:24.557Z,74.80
2023-04-18T00:59:52.276Z,74.80
2023-04-18T01:02:20.207Z,74.80
2023-04-18T01:04:48.040Z,74.80
2023-04-18T01:07:15.869Z,74.80
2023-04-18T01:09:43.576Z,74.80
2023-04-18T01:12:11.278Z,75.10
2023-04-18T01:14:43.766Z,75.00
2023-04-18T01:17:13.311Z,75.00
2023-04-18T01:19:41.084Z,74.90
2023-04-18T01:22:08.819Z,74.90
2023-04-18T01:24:37.886Z,74.90
2023-04-18T01:27:05.815Z,74.90
2023-04-18T01:29:34.888Z,75.00
2023-04-18T01:32:02.951Z,75.20
2023-04-18T01:34:30.691Z,75.10
2023-04-18T01:36:59.075Z,75.10
2023-04-18T01:39:26.813Z,75.10
2023-04-18T01:41:55.853Z,75.00
2023-04-18T01:44:23.610Z,75.00
2023-04-18T01:46:51.373Z,75.00
2023-04-18T01:49:19.151Z,75.00
2023-04-18T01:51:47.194Z,75.10
2023-04-18T01:54:15.490Z,75.10
2023-04-18T01:56:43.360Z,75.10
2023-04-18T01:59:12.447Z,75.10
2023-04-18T02:01:40.321Z,75.00
2023-04-18T02:04:08.144Z,75.10
2023-04-18T02:06:35.915Z,75.10
2023-04-18T02:09:03.651Z,75.00
2023-04-18T02:11:31.344Z,74.90
2023-04-18T02:13:59.510Z,74.80
2023-04-18T02:16:28.719Z,74.80
2023-04-18T02:18:56.510Z,74.80
2023-04-18T02:21:24.322Z,74.80
2023-04-18T02:23:52.017Z,74.80
2023-04-18T02:26:22.710Z,74.70
2023-04-18T02:28:50.405Z,74.90
2023-04-18T02:31:18.152Z,74.80
2023-04-18T02:33:47.359Z,74.70
2023-04-18T02:36:15.072Z,74.80
2023-04-18T02:38:44.789Z,74.80
2023-04-18T02:41:15.307Z,74.80
2023-04-18T02:43:43.109Z,74.80
2023-04-18T02:46:10.969Z,74.80
2023-04-18T02:48:38.781Z,74.80
2023-04-18T02:51:09.303Z,74.80
2023-04-18T02:53:39.001Z,74.70
2023-04-18T02:56:07.855Z,74.70
2023-04-18T02:58:54.149Z,74.80
2023-04-18T03:01:51.205Z,74.70
2023-04-18T03:04:21.570Z,74.80
2023-04-18T03:07:05.699Z,74.70
2023-04-18T03:09:36.986Z,74.80
2023-04-18T03:12:11.925Z,74.70
2023-04-18T03:14:40.335Z,74.70
2023-04-18T03:17:08.024Z,74.80
2023-04-18T03:19:40.779Z,74.70
2023-04-18T03:22:13.452Z,74.80
2023-04-18T03:24:48.716Z,74.80
2023-04-18T03:27:17.359Z,74.70
2023-04-18T03:29:46.342Z,74.70
2023-04-18T03:32:14.824Z,74.80
2023-04-18T03:34:42.519Z,74.60
2023-04-18T03:37:12.229Z,74.70
2023-04-18T03:39:45.663Z,74.60
2023-04-18T03:42:14.208Z,74.60
2023-04-18T03:44:43.137Z,74.60
2023-04-18T03:47:10.957Z,74.80
2023-04-18T03:49:42.291Z,74.80
2023-04-18T03:52:10.002Z,74.70
2023-04-18T03:54:39.001Z,74.80
2023-04-18T03:57:07.219Z,74.70
2023-04-18T03:59:37.139Z,74.70
2023-04-18T04:02:05.091Z,74.70
2023-04-18T04:04:32.891Z,74.60
2023-04-18T04:07:00.913Z,74.60
2023-04-18T04:09:28.640Z,74.70
2023-04-18T04:11:57.678Z,74.70
2023-04-18T04:14:25.599Z,74.70
2023-04-18T04:16:53.922Z,74.80
2023-04-18T04:19:22.413Z,74.70
2023-04-18T04:22:03.279Z,74.70
2023-04-18T04:24:33.159Z,74.80
2023-04-18T04:27:03.611Z,74.70
2023-04-18T04:29:31.476Z,74.70
2023-04-18T04:32:00.161Z,74.80
2023-04-18T04:34:34.323Z,75.50
2023-04-18T04:37:04.396Z,74.80
2023-04-18T04:39:36.838Z,74.70
2023-04-18T04:42:28.425Z,74.60
2023-04-18T04:45:03.372Z,74.60
2023-04-18T04:47:31.243Z,74.60
2023-04-18T04:50:00.152Z,74.60
2023-04-18T04:52:27.939Z,74.50
2023-04-18T04:54:55.707Z,74.40
2023-04-18T04:57:26.538Z,74.50
2023-04-18T04:59:54.394Z,74.50
2023-04-18T05:02:23.532Z,74.60
2023-04-18T05:04:51.374Z,74.70
2023-04-18T05:07:19.034Z,74.80
2023-04-18T05:09:46.693Z,74.80
2023-04-18T05:12:14.381Z,74.80
2023-04-18T05:14:43.411Z,74.70
2023-04-18T05:17:11.106Z,74.80
2023-04-18T05:19:39.374Z,74.90
2023-04-18T05:22:07.045Z,75.00
2023-04-18T05:24:34.721Z,74.90
2023-04-18T05:27:02.815Z,74.80
2023-04-18T05:29:30.478Z,74.80
2023-04-18T05:31:59.493Z,74.90
2023-04-18T05:34:27.139Z,74.70
2023-04-18T05:36:54.829Z,74.90
2023-04-18T05:39:22.878Z,74.90
2023-04-18T05:41:50.673Z,74.80
2023-04-18T05:44:18.563Z,74.90
2023-04-18T05:46:46.673Z,74.90
2023-04-18T05:49:15.785Z,74.90
2023-04-18T05:51:43.567Z,74.80
2023-04-18T05:54:11.295Z,74.70
2023-04-18T05:56:40.939Z,74.80
2023-04-18T05:59:08.663Z,74.70
2023-04-18T06:01:36.339Z,74.80
2023-04-18T06:04:04.196Z,74.70
2023-04-18T06:06:33.316Z,74.80
2023-04-18T06:09:01.014Z,74.70
2023-04-18T06:11:28.692Z,74.80
2023-04-18T06:13:56.622Z,74.70
2023-04-18T06:16:24.321Z,74.70
2023-04-18T06:18:52.042Z,74.70
2023-04-18T06:21:21.466Z,74.60
2023-04-18T06:23:50.514Z,74.60
2023-04-18T06:26:18.217Z,74.60
2023-04-18T06:28:46.238Z,74.70
2023-04-18T06:31:13.960Z,74.70
2023-04-18T06:33:41.639Z,74.70
2023-04-18T06:36:10.063Z,74.80
2023-04-18T06:38:37.757Z,74.70
2023-04-18T06:41:06.843Z,74.80
2023-04-18T06:43:35.808Z,74.70
2023-04-18T06:46:05.076Z,74.80
2023-04-18T06:48:32.805Z,74.80
2023-04-18T06:51:00.536Z,74.70
2023-04-18T06:53:28.241Z,74.70
2023-04-18T06:55:55.898Z,74.70
2023-04-18T06:58:24.855Z,74.70
2023-04-18T07:00:52.842Z,74.70
2023-04-18T07:03:20.689Z,74.60
2023-04-18T07:05:50.282Z,74.70
2023-04-18T07:08:17.999Z,74.70
2023-04-18T07:10:45.659Z,74.60
2023-04-18T07:13:13.299Z,74.70
2023-04-18T07:15:42.279Z,74.70
2023-04-18T07:18:10.392Z,74.60
2023-04-18T07:20:38.019Z,74.60
2023-04-18T07:23:06.126Z,74.50
2023-04-18T07:25:33.817Z,74.50
2023-04-18T07:28:01.472Z,74.50
2023-04-18T07:30:29.223Z,74.50
2023-04-18T07:32:58.234Z,74.40
2023-04-18T07:35:25.983Z,74.30
2023-04-18T07:37:53.956Z,74.20
2023-04-18T07:40:22.075Z,74.10
2023-04-18T07:42:49.750Z,74.00
2023-04-18T07:45:17.614Z,74.00
2023-04-18T07:47:45.502Z,74.00
2023-04-18T07:50:14.597Z,73.80
2023-04-18T07:52:42.309Z,73.70
2023-04-18T07:55:10.565Z,73.70
2023-04-18T07:57:38.224Z,73.60
2023-04-18T08:00:07.747Z,73.70
2023-04-18T08:02:41.534Z,73.50
2023-04-18T08:05:10.539Z,73.40
2023-04-18T08:07:39.664Z,73.20
2023-04-18T08:10:08.431Z,73.10
2023-04-18T08:12:37.012Z,73.10
2023-04-18T08:15:05.103Z,73.00
2023-04-18T08:17:33.025Z,72.90
2023-04-18T08:20:04.805Z,72.70
2023-04-18T08:22:32.504Z,72.50
2023-04-18T08:25:05.411Z,72.60
2023-04-18T08:27:33.562Z,72.40
2023-04-18T08:30:03.948Z,72.50
2023-04-18T08:32:32.181Z,72.40
2023-04-18T08:34:59.889Z,72.40
2023-04-18T08:37:28.420Z,72.30
2023-04-18T08:39:56.182Z,72.30
2023-04-18T08:42:25.179Z,73.20
2023-04-18T08:44:53.917Z,72.20
2023-04-18T08:47:21.622Z,72.30
2023-04-18T08:49:49.309Z,72.40
2023-04-18T08:52:17.669Z,72.40
2023-04-18T08:54:46.587Z,72.50
2023-04-18T08:57:16.366Z,72.60
2023-04-18T08:59:47.184Z,72.60
2023-04-18T09:02:16.658Z,72.50
2023-04-18T09:04:45.766Z,72.50
2023-04-18T09:07:14.285Z,72.40
2023-04-18T09:09:46.381Z,73.30
2023-04-18T09:12:15.122Z,72.40
2023-04-18T09:14:45.438Z,72.40
2023-04-18T09:17:18.143Z,72.30
2023-04-18T09:19:48.750Z,72.20
2023-04-18T09:22:16.905Z,72.30
2023-04-18T09:24:50.150Z,72.40
2023-04-18T09:27:18.635Z,72.10
2023-04-18T09:29:47.279Z,72.20
2023-04-18T09:32:24.936Z,72.20
2023-04-18T09:34:54.396Z,72.20
2023-04-18T09:37:22.546Z,72.30
2023-04-18T09:39:51.292Z,72.40
2023-04-18T09:42:19.268Z,72.40
2023-04-18T09:45:01.333Z,72.40
2023-04-18T09:47:30.710Z,72.30
2023-04-18T09:49:58.415Z,72.50
2023-04-18T09:52:26.417Z,72.40
2023-04-18T09:54:58.118Z,72.50
2023-04-18T09:57:28.020Z,72.40
2023-04-18T09:59:59.771Z,73.40
2023-04-18T10:02:27.568Z,72.70
2023-04-18T10:04:56.814Z,72.70
2023-04-18T10:07:24.680Z,72.50
2023-04-18T10:09:52.368Z,72.60
2023-04-18T10:12:20.064Z,72.60
2023-04-18T10:14:48.012Z,72.60
2023-04-18T10:17:15.966Z,72.70
2023-04-18T10:19:45.899Z,72.60
2023-04-18T10:22:14.938Z,72.70
2023-04-18T10:24:53.004Z,72.50
2023-04-18T10:27:20.972Z,72.30
2023-04-18T10:29:49.896Z,72.40
2023-04-18T10:32:17.758Z,72.40
2023-04-18T10:34:46.991Z,72.20
2023-04-18T10:37:17.546Z,72.20
2023-04-18T10:39:49.623Z,72.20
2023-04-18T10:42:17.344Z,72.80
2023-04-18T10:44:45.005Z,72.20
2023-04-18T10:47:22.838Z,72.20
2023-04-18T10:49:58.135Z,72.20
2023-04-18T10:52:27.781Z,72.20
2023-04-18T10:54:59.291Z,72.30
2023-04-18T10:57:32.145Z,72.30
2023-04-18T10:59:59.820Z,72.40
2023-04-18T11:02:29.986Z,72.50
2023-04-18T11:04:58.544Z,72.40
2023-04-18T11:07:37.261Z,72.50
2023-04-18T11:10:05.407Z,72.40
2023-04-18T11:12:34.844Z,72.60
2023-04-18T11:15:10.528Z,72.60
2023-04-18T11:17:40.005Z,72.70
2023-04-18T11:20:09.124Z,72.70
2023-04-18T11:22:46.955Z,72.70
2023-04-18T11:25:14.823Z,72.70
2023-04-18T11:27:43.869Z,72.80
2023-04-18T11:30:12.214Z,72.80
2023-04-18T11:32:39.910Z,72.70
2023-04-18T11:35:09.294Z,72.70
2023-04-18T11:37:37.534Z,72.60
2023-04-18T11:40:07.765Z,72.60
2023-04-18T11:42:35.576Z,72.70
2023-04-18T11:45:03.604Z,72.70
2023-04-18T11:47:33.873Z,72.70
2023-04-18T11:50:02.267Z,72.80
2023-04-18T11:52:31.524Z,72.80
2023-04-18T11:55:00.198Z,72.70
2023-04-18T11:57:29.906Z,72.70
2023-04-18T11:59:58.899Z,72.70
2023-04-18T12:02:27.689Z,72.70
2023-04-18T12:04:57.001Z,72.70
2023-04-18T12:07:32.685Z,72.70
2023-04-18T12:10:00.775Z,72.50
2023-04-18T12:12:29.832Z,72.80
2023-04-18T12:15:01.653Z,72.70
2023-04-18T12:17:29.470Z,72.60
2023-04-18T12:19:57.589Z,72.60
2023-04-18T12:22:41.786Z,72.40
2023-04-18T12:25:25.225Z,72.30
2023-04-18T12:27:57.901Z,72.10
2023-04-18T12:30:26.827Z,71.90
2023-04-18T12:32:55.750Z,71.70
2023-04-18T12:35:23.627Z,71.40
2023-04-18T12:37:52.199Z,71.30
2023-04-18T12:40:20.294Z,71.20
2023-04-18T12:42:48.062Z,71.20
2023-04-18T12:45:17.327Z,71.10
2023-04-18T12:47:45.908Z,70.90
2023-04-18T12:50:16.578Z,71.10
2023-04-18T12:52:44.791Z,71.00
2023-04-18T12:55:12.749Z,70.90
2023-04-18T12:57:41.116Z,70.90
2023-04-18T13:00:11.022Z,70.80
2023-04-18T13:02:41.521Z,70.60
2023-04-18T13:05:10.102Z,70.30
2023-04-18T13:07:40.303Z,70.40
2023-04-18T13:10:09.225Z,70.20
2023-04-18T13:12:37.282Z,70.90
2023-04-18T13:15:06.713Z,69.90
2023-04-18T13:17:36.307Z,69.70
2023-04-18T13:20:06.924Z,69.70
2023-04-18T13:22:34.735Z,69.40
2023-04-18T13:25:02.537Z,69.80
2023-04-18T13:27:30.226Z,69.50
2023-04-18T13:29:58.172Z,69.40
2023-04-18T13:32:26.340Z,69.30
2023-04-18T13:34:55.989Z,69.30
2023-04-18T13:37:24.989Z,69.30
2023-04-18T13:39:52.680Z,69.30
2023-04-18T13:42:20.394Z,69.30
2023-04-18T13:44:48.121Z,69.30
2023-04-18T13:47:15.797Z,69.40
2023-04-18T13:49:43.457Z,69.40
2023-04-18T13:52:11.273Z,69.40
2023-04-18T13:54:41.231Z,69.60
2023-04-18T13:57:11.581Z,69.40
2023-04-18T13:59:40.318Z,69.60
2023-04-18T14:02:08.409Z,69.60
2023-04-18T14:04:36.417Z,69.60
2023-04-18T14:07:06.120Z,69.70
2023-04-18T14:09:33.890Z,69.70
2023-04-18T14:12:02.958Z,69.70
2023-04-18T14:14:30.712Z,69.60
2023-04-18T14:16:58.390Z,69.60
2023-04-18T14:19:26.105Z,69.50
2023-04-18T14:21:53.871Z,69.30
2023-04-18T14:24:21.717Z,69.20
2023-04-18T14:26:49.402Z,69.20
2023-04-18T14:29:18.454Z,69.00
2023-04-18T14:31:46.223Z,68.80
2023-04-18T14:34:14.009Z,68.80
2023-04-18T14:36:41.697Z,68.70
2023-04-18T14:39:09.385Z,68.70
2023-04-18T14:41:37.048Z,68.70
2023-04-18T14:44:05.681Z,68.80
2023-04-18T14:46:34.895Z,68.80
2023-04-18T14:49:02.607Z,68.80
2023-04-18T14:51:31.139Z,69.10
2023-04-18T14:53:58.799Z,69.10
2023-04-18T14:56:26.710Z,69.20
2023-04-18T14:58:54.360Z,69.30
2023-04-18T15:01:22.085Z,70.20
2023-04-18T15:03:52.588Z,69.20
2023-04-18T15:06:20.440Z,69.30
2023-04-18T15:08:48.123Z,69.40
2023-04-18T15:11:15.798Z,69.30
2023-04-18T15:13:44.421Z,69.30
2023-04-18T15:16:12.398Z,69.30
2023-04-18T15:18:40.101Z,69.30
2023-04-18T15:21:09.109Z,69.50
2023-04-18T15:23:36.769Z,69.50
2023-04-18T15:26:04.451Z,69.60
2023-04-18T15:28:32.324Z,69.70
2023-04-18T15:30:59.947Z,69.80
2023-04-18T15:33:28.169Z,70.10
2023-04-18T15:35:56.487Z,70.10
2023-04-18T15:38:25.556Z,70.20
2023-04-18T15:40:53.257Z,70.30
2023-04-18T15:43:20.972Z,70.40
2023-04-18T15:45:48.819Z,70.60
2023-04-18T15:48:16.502Z,70.50
2023-04-18T15:50:44.169Z,70.30
2023-04-18T15:53:11.829Z,70.20
2023-04-18T15:55:41.083Z,70.20
2023-04-18T15:58:08.751Z,70.10
2023-04-18T16:00:36.432Z,70.20
2023-04-18T16:03:04.646Z,70.20
2023-04-18T16:05:32.471Z,70.20
2023-04-18T16:08:01.173Z,70.20
2023-04-18T16:10:28.860Z,70.10
2023-04-18T16:12:59.337Z,70.20
2023-04-18T16:15:27.069Z,70.30
2023-04-18T16:17:55.466Z,70.30
2023-04-18T16:20:23.144Z,70.30
2023-04-18T16:22:50.819Z,70.40
2023-04-18T16:25:19.039Z,70.30
2023-04-18T16:27:46.750Z,70.20
2023-04-18T16:30:16.076Z,70.20
2023-04-18T16:32:43.859Z,70.20
2023-04-18T16:35:11.860Z,70.30
2023-04-18T16:37:39.572Z,70.30
2023-04-18T16:40:09.721Z,70.30
2023-04-18T16:42:37.622Z,70.30
2023-04-18T16:45:05.888Z,70.50
2023-04-18T16:47:34.925Z,70.60
2023-04-18T16:50:02.628Z,70.70
2023-04-18T16:52:30.908Z,70.90
2023-04-18T16:54:58.554Z,71.00
2023-04-18T16:57:26.242Z,71.20
2023-04-18T16:59:53.919Z,71.40
2023-04-18T17:02:21.714Z,71.30
2023-04-18T17:04:51.188Z,71.30
2023-04-18T17:07:18.853Z,71.00
2023-04-18T17:09:46.527Z,71.10
2023-04-18T17:12:14.192Z,70.80
2023-04-18T17:14:41.856Z,70.50
2023-04-18T17:17:09.510Z,70.60
2023-04-18T17:19:37.217Z,70.30
2023-04-18T17:22:06.204Z,70.40
2023-04-18T17:24:33.968Z,70.30
2023-04-18T17:27:01.702Z,70.50
2023-04-18T17:29:29.405Z,70.70
2023-04-18T17:31:57.089Z,70.80
2023-04-18T17:34:24.782Z,70.70
2023-04-18T17:36:52.458Z,70.80
2023-04-18T17:39:21.449Z,70.90
2023-04-18T17:41:49.239Z,70.90
2023-04-18T17:44:16.906Z,71.00
2023-04-18T17:46:44.558Z,71.20
2023-04-18T17:49:12.309Z,71.20
2023-04-18T17:51:40.231Z,71.30
2023-04-18T17:54:08.039Z,71.30
2023-04-18T17:56:37.047Z,71.50
2023-04-18T17:59:05.014Z,71.50
2023-04-18T18:01:34.619Z,71.60
2023-04-18T18:04:02.484Z,71.80
2023-04-18T18:06:30.369Z,71.80
2023-04-18T18:08:59.083Z,72.10
2023-04-18T18:11:27.574Z,72.20
2023-04-18T18:13:57.306Z,72.40
2023-04-18T18:16:25.037Z,72.50
2023-04-18T18:18:52.793Z,72.60
2023-04-18T18:21:20.453Z,72.70
2023-04-18T18:23:48.392Z,72.70
2023-04-18T18:26:16.075Z,72.90
2023-04-18T18:28:43.727Z,72.90
2023-04-18T18:31:12.733Z,72.90
2023-04-18T18:33:40.446Z,73.00
2023-04-18T18:36:08.161Z,73.10
2023-04-18T18:38:35.840Z,73.00
2023-04-18T18:41:04.523Z,73.20
2023-04-18T18:43:32.461Z,73.20
2023-04-18T18:46:00.189Z,73.30
2023-04-18T18:48:29.470Z,73.30
2023-04-18T18:50:58.176Z,73.40
2023-04-18T18:53:25.883Z,73.50
2023-04-18T18:55:53.543Z,73.60
2023-04-18T18:58:21.563Z,73.50
2023-04-18T19:00:50.971Z,73.60
2023-04-18T19:03:21.034Z,73.50
2023-04-18T19:05:50.225Z,73.50
2023-04-18T19:08:17.889Z,73.50
2023-04-18T19:10:45.597Z,73.70
2023-04-18T19:13:13.402Z,73.80
2023-04-18T19:15:41.096Z,73.80
2023-04-18T19:18:08.856Z,73.80
2023-04-18T19:20:38.710Z,73.80
2023-04-18T19:23:07.786Z,73.80
2023-04-18T19:25:35.445Z,74.00
2023-04-18T19:28:04.779Z,73.90
2023-04-18T19:30:32.485Z,73.90
2023-04-18T19:33:00.238Z,74.10
2023-04-18T19:35:28.383Z,74.20
2023-04-18T19:38:01.328Z,74.90
2023-04-18T19:40:30.509Z,74.00
2023-04-18T19:42:58.483Z,74.00
2023-04-18T19:45:26.160Z,74.00
2023-04-18T19:47:53.806Z,74.00
2023-04-18T19:50:21.578Z,74.10
2023-04-18T19:52:49.236Z,74.10
2023-04-18T19:55:16.918Z,74.10
2023-04-18T19:57:45.931Z,74.20
2023-04-18T20:00:14.289Z,74.20
2023-04-18T20:02:43.113Z,74.20
2023-04-18T20:05:11.338Z,74.20
2023-04-18T20:07:39.152Z,74.30
2023-04-18T20:10:08.824Z,74.20
2023-04-18T20:12:36.595Z,74.30
2023-04-18T20:15:06.650Z,74.30
2023-04-18T20:17:34.870Z,74.30
2023-04-18T20:20:02.681Z,74.30
2023-04-18T20:22:32.183Z,74.30
2023-04-18T20:25:00.994Z,74.30
2023-04-18T20:27:28.699Z,74.50
2023-04-18T20:29:57.335Z,74.50
2023-04-18T20:32:26.651Z,74.40
2023-04-18T20:34:54.563Z,74.60
2023-04-18T20:37:22.289Z,75.00
2023-04-18T20:39:50.003Z,75.00
2023-04-18T20:42:18.555Z,74.60
2023-04-18T20:44:47.503Z,74.30
2023-04-18T20:47:15.928Z,74.50
2023-04-18T20:49:45.566Z,74.70
2023-04-18T20:52:14.401Z,74.90
2023-04-18T20:54:42.413Z,75.00
2023-04-18T20:57:10.079Z,74.90
2023-04-18T20:59:37.720Z,74.80
2023-04-18T21:02:05.440Z,74.80
2023-04-18T21:04:33.277Z,74.80
2023-04-18T21:07:02.432Z,74.80
2023-04-18T21:09:30.838Z,74.90
2023-04-18T21:11:58.637Z,74.90
2023-04-18T21:14:26.304Z,75.00
2023-04-18T21:16:53.984Z,75.00
2023-04-18T21:19:21.691Z,75.00
2023-04-18T21:21:49.346Z,75.00
2023-04-18T21:24:18.451Z,75.00
2023-04-18T21:26:46.125Z,75.20
2023-04-18T21:29:13.783Z,75.10
2023-04-18T21:31:41.438Z,75.20
2023-04-18T21:34:10.077Z,75.20
2023-04-18T21:36:39.881Z,75.30
2023-04-18T21:39:08.244Z,75.30
2023-04-18T21:41:37.246Z,75.20
2023-04-18T21:44:04.951Z,75.30
2023-04-18T21:46:32.590Z,75.30
2023-04-18T21:49:00.278Z,75.20
2023-04-18T21:51:28.186Z,76.10
2023-04-18T21:53:55.830Z,75.20
2023-04-18T21:56:23.486Z,75.30
2023-04-18T21:58:52.458Z,75.40
2023-04-18T22:01:20.204Z,75.40
2023-04-18T22:03:48.018Z,75.40
2023-04-18T22:06:15.762Z,75.40
2023-04-18T22:08:43.572Z,75.40
2023-04-18T22:11:13.415Z,75.40
2023-04-18T22:13:44.733Z,75.40
2023-04-18T22:16:13.775Z,75.40
2023-04-18T22:18:41.487Z,75.40
2023-04-18T22:21:10.249Z,75.50
2023-04-18T22:23:37.892Z,75.50
2023-04-18T22:26:05.750Z,75.50
2023-04-18T22:28:33.839Z,75.60
2023-04-18T22:31:01.545Z,75.60
2023-04-18T22:33:30.781Z,75.60
2023-04-18T22:35:58.457Z,75.60
2023-04-18T22:38:26.212Z,75.50
2023-04-18T22:40:54.012Z,75.60
2023-04-18T22:43:23.603Z,75.70
2023-04-18T22:45:51.501Z,75.60
2023-04-18T22:48:19.364Z,75.70
2023-04-18T22:50:49.635Z,75.70
2023-04-18T22:53:17.367Z,75.60
2023-04-18T22:55:45.621Z,75.70
2023-04-18T22:58:13.407Z,75.60
2023-04-18T23:00:41.075Z,75.70
2023-04-18T23:03:08.865Z,75.70
2023-04-18T23:05:36.623Z,75.70
2023-04-18T23:08:06.708Z,75.70
2023-04-18T23:10:34.633Z,75.60
2023-04-18T23:13:02.364Z,75.60
2023-04-18T23:15:30.056Z,75.70
2023-04-18T23:17:57.762Z,75.60
2023-04-18T23:20:25.490Z,75.60
2023-04-18T23:22:53.619Z,75.60
2023-04-18T23:25:22.671Z,75.50
2023-04-18T23:27:50.387Z,75.60
2023-04-18T23:30:18.059Z,75.70
2023-04-18T23:32:45.835Z,75.70
2023-04-18T23:35:13.594Z,75.70
2023-04-18T23:37:42.074Z,75.70
2023-04-18T23:40:10.147Z,75.70
2023-04-18T23:42:39.126Z,75.60
2023-04-18T23:45:07.583Z,75.60
2023-04-18T23:47:35.354Z,75.60
2023-04-18T23:50:03.335Z,75.60
2023-04-18T23:52:30.977Z,75.60
2023-04-18T23:55:00.345Z,75.50
2023-04-18T23:57:28.015Z,75.50
2023-04-18T23:59:57.014Z,75.60
